createdAt,value
2018-08-22T00:02:08.842Z,51.05
2018-08-22T00:04:38.419Z,50.85
2018-08-22T00:07:07.761Z,50.65
2018-08-22T00:09:37.273Z,52.55
2018-08-22T00:12:07.016Z,50.78
2018-08-22T00:14:36.449Z,51.72
2018-08-22T00:17:07.043Z,51.00
2018-08-22T00:19:36.571Z,51.22
2018-08-22T00:22:06.065Z,51.55
2018-08-22T00:24:35.557Z,52.49
2018-08-22T00:27:05.221Z,53.25
2018-08-22T00:29:35.266Z,53.31
2018-08-22T00:32:04.803Z,53.61
2018-08-22T00:34:34.206Z,52.57
2018-08-22T00:37:03.667Z,52.40
2018-08-22T00:39:33.069Z,52.81
2018-08-22T00:42:02.344Z,52.73
2018-08-22T00:44:31.611Z,52.90
2018-08-22T00:47:00.973Z,53.65
2018-08-22T00:49:30.231Z,53.48
2018-08-22T00:51:59.530Z,54.20
2018-08-22T00:54:28.874Z,53.19
2018-08-22T00:56:58.215Z,53.70
2018-08-22T00:59:27.528Z,53.78
2018-08-22T01:01:56.980Z,54.66
2018-08-22T01:04:26.311Z,53.40
2018-08-22T01:06:55.622Z,53.76
2018-08-22T01:09:24.912Z,53.56
2018-08-22T01:11:54.289Z,54.40
2018-08-22T01:14:23.532Z,54.20
2018-08-22T01:16:52.843Z,53.35
2018-08-22T01:19:22.124Z,54.20
2018-08-22T01:21:51.424Z,53.66
2018-08-22T01:24:21.220Z,54.20
2018-08-22T01:26:50.534Z,55.08
2018-08-22T01:29:19.862Z,55.21
2018-08-22T01:31:49.192Z,55.13
2018-08-22T01:34:18.439Z,54.59
2018-08-22T01:36:47.695Z,55.69
2018-08-22T01:39:16.961Z,56.60
2018-08-22T01:41:50.303Z,56.85
2018-08-22T01:44:19.843Z,56.87
2018-08-22T01:46:49.095Z,57.09
2018-08-22T01:49:18.393Z,57.37
2018-08-22T01:51:47.729Z,56.74
2018-08-22T01:54:17.201Z,57.02
2018-08-22T01:56:46.525Z,57.04
2018-08-22T01:59:15.911Z,57.95
2018-08-22T02:01:45.215Z,57.37
2018-08-22T02:04:14.457Z,58.34
2018-08-22T02:06:44.241Z,57.60
2018-08-22T02:09:13.487Z,56.99
2018-08-22T02:11:42.945Z,56.09
2018-08-22T02:14:12.771Z,57.45
2018-08-22T02:16:42.037Z,56.24
2018-08-22T02:19:11.511Z,56.11
2018-08-22T02:21:40.794Z,56.42
2018-08-22T02:24:10.151Z,56.14
2018-08-22T02:26:39.426Z,55.56
2018-08-22T02:29:08.911Z,57.96
2018-08-22T02:31:38.402Z,57.30
2018-08-22T02:34:07.676Z,57.19
2018-08-22T02:36:37.014Z,58.34
2018-08-22T02:39:08.525Z,57.86
2018-08-22T02:41:37.947Z,57.02
2018-08-22T02:44:07.472Z,57.81
2018-08-22T02:46:36.743Z,58.22
2018-08-22T02:49:06.633Z,57.87
2018-08-22T02:51:35.907Z,58.19
2018-08-22T02:54:05.153Z,57.05
2018-08-22T02:56:34.809Z,57.65
2018-08-22T02:59:04.162Z,57.67
2018-08-22T03:01:33.505Z,58.11
2018-08-22T03:04:02.885Z,57.35
2018-08-22T03:06:32.324Z,57.71
2018-08-22T03:09:01.656Z,57.84
2018-08-22T03:11:31.802Z,57.40
2018-08-22T03:14:01.102Z,57.96
2018-08-22T03:16:30.475Z,57.96
2018-08-22T03:18:59.932Z,58.42
2018-08-22T03:21:29.197Z,58.27
2018-08-22T03:23:58.464Z,57.12
2018-08-22T03:26:27.743Z,56.57
2018-08-22T03:28:56.987Z,56.22
2018-08-22T03:31:27.095Z,56.22
2018-08-22T03:33:56.446Z,56.51
2018-08-22T03:36:25.878Z,56.99
2018-08-22T03:38:55.130Z,57.93
2018-08-22T03:41:24.507Z,57.56
2018-08-22T03:43:53.847Z,57.74
2018-08-22T03:46:23.167Z,56.93
2018-08-22T03:48:52.532Z,57.87
2018-08-22T03:51:21.914Z,58.44
2018-08-22T03:53:51.245Z,58.23
2018-08-22T03:56:20.834Z,58.83
2018-08-22T03:58:50.703Z,58.77
2018-08-22T04:01:20.009Z,59.13
2018-08-22T04:03:49.341Z,59.68
2018-08-22T04:06:18.634Z,59.97
2018-08-22T04:08:48.124Z,59.39
2018-08-22T04:11:17.428Z,59.41
2018-08-22T04:13:46.675Z,59.59
2018-08-22T04:16:15.956Z,60.15
2018-08-22T04:18:45.323Z,60.28
2018-08-22T04:21:14.748Z,60.26
2018-08-22T04:23:44.052Z,60.72
2018-08-22T04:26:13.348Z,60.66
2018-08-22T04:28:42.645Z,60.57
2018-08-22T04:31:11.960Z,60.49
2018-08-22T04:33:41.269Z,60.87
2018-08-22T04:36:10.553Z,60.17
2018-08-22T04:38:39.837Z,60.50
2018-08-22T04:41:09.506Z,60.20
2018-08-22T04:43:38.892Z,60.82
2018-08-22T04:46:08.146Z,60.00
2018-08-22T04:48:37.469Z,59.80
2018-08-22T04:51:06.902Z,58.76
2018-08-22T04:53:36.248Z,58.70
2018-08-22T04:56:05.619Z,58.03
2018-08-22T04:58:34.884Z,58.13
2018-08-22T05:01:04.271Z,57.33
2018-08-22T05:03:33.828Z,56.61
2018-08-22T05:06:03.100Z,56.45
2018-08-22T05:08:32.415Z,56.79
2018-08-22T05:11:01.758Z,56.40
2018-08-22T05:13:31.053Z,56.60
2018-08-22T05:16:00.369Z,57.25
2018-08-22T05:18:29.672Z,56.14
2018-08-22T05:20:58.994Z,56.21
2018-08-22T05:23:29.283Z,55.36
2018-08-22T05:25:59.127Z,55.26
2018-08-22T05:28:28.413Z,54.69
2018-08-22T05:30:57.832Z,53.76
2018-08-22T05:33:27.168Z,54.96
2018-08-22T05:35:56.460Z,54.45
2018-08-22T05:38:25.794Z,54.49
2018-08-22T05:40:55.158Z,55.46
2018-08-22T05:43:24.499Z,55.31
2018-08-22T05:45:53.790Z,55.54
2018-08-22T05:48:23.199Z,54.75
2018-08-22T05:50:53.114Z,55.43
2018-08-22T05:53:22.418Z,54.96
2018-08-22T05:55:51.918Z,53.89
2018-08-22T05:58:21.204Z,53.32
2018-08-22T06:00:50.496Z,52.97
2018-08-22T06:03:19.940Z,52.44
2018-08-22T06:05:49.271Z,52.86
2018-08-22T06:08:18.586Z,52.88
2018-08-22T06:10:48.017Z,52.18
2018-08-22T06:13:17.402Z,52.11
2018-08-22T06:15:46.709Z,52.21
2018-08-22T06:18:16.135Z,51.27
2018-08-22T06:20:45.391Z,51.42
2018-08-22T06:23:14.679Z,50.53
2018-08-22T06:25:44.080Z,51.32
2018-08-22T06:28:13.435Z,50.85
2018-08-22T06:30:43.140Z,50.36
2018-08-22T06:33:12.527Z,49.93
2018-08-22T06:35:41.837Z,49.94
2018-08-22T06:38:11.128Z,49.31
2018-08-22T06:40:40.487Z,50.33
2018-08-22T06:43:09.787Z,49.55
2018-08-22T06:45:39.028Z,49.06
2018-08-22T06:48:08.338Z,49.58
2018-08-22T06:50:37.667Z,48.28
2018-08-22T06:53:07.010Z,48.69
2018-08-22T06:55:36.406Z,47.67
2018-08-22T06:58:05.740Z,48.29
2018-08-22T07:00:35.050Z,46.88
2018-08-22T07:03:04.362Z,46.95
2018-08-22T07:05:33.759Z,46.00
2018-08-22T07:08:03.243Z,46.17
2018-08-22T07:10:32.540Z,45.00
2018-08-22T07:13:01.778Z,45.10
2018-08-22T07:15:31.241Z,45.14
2018-08-22T07:18:01.275Z,44.59
2018-08-22T07:20:30.583Z,44.61
2018-08-22T07:22:59.930Z,43.57
2018-08-22T07:25:29.518Z,43.87
2018-08-22T07:27:58.879Z,44.62
2018-08-22T07:30:28.174Z,44.42
2018-08-22T07:32:57.555Z,44.31
2018-08-22T07:35:26.869Z,43.74
2018-08-22T07:37:56.184Z,42.42
2018-08-22T07:40:25.589Z,42.73
2018-08-22T07:42:54.923Z,41.76
2018-08-22T07:45:24.376Z,42.88
2018-08-22T07:47:53.770Z,42.54
2018-08-22T07:50:23.209Z,41.83
2018-08-22T07:52:57.727Z,41.97
2018-08-22T07:55:26.994Z,40.23
2018-08-22T07:57:56.327Z,40.18
2018-08-22T08:00:25.865Z,39.18
2018-08-22T08:02:55.219Z,40.32
2018-08-22T08:05:24.583Z,40.17
2018-08-22T08:07:53.978Z,40.06
2018-08-22T08:10:28.423Z,39.04
2018-08-22T08:12:57.733Z,38.89
2018-08-22T08:15:27.050Z,38.26
2018-08-22T08:17:56.693Z,37.38
2018-08-22T08:20:26.500Z,38.17
2018-08-22T08:22:55.943Z,37.24
2018-08-22T08:25:25.282Z,36.61
2018-08-22T08:27:54.609Z,38.85
2018-08-22T08:30:23.885Z,38.65
2018-08-22T08:32:53.187Z,37.46
2018-08-22T08:35:22.511Z,36.49
2018-08-22T08:37:51.953Z,35.96
2018-08-22T08:40:21.293Z,36.60
2018-08-22T08:42:51.164Z,36.23
2018-08-22T08:45:20.617Z,35.87
2018-08-22T08:47:50.048Z,34.89
2018-08-22T08:50:19.329Z,34.49
2018-08-22T08:52:48.613Z,35.16
2018-08-22T08:55:18.094Z,34.53
2018-08-22T08:57:47.298Z,35.24
2018-08-22T09:00:16.650Z,34.66
2018-08-22T09:02:46.023Z,34.47
2018-08-22T09:05:15.443Z,34.09
2018-08-22T09:07:44.770Z,33.62
2018-08-22T09:10:14.089Z,32.80
2018-08-22T09:12:43.442Z,31.95
2018-08-22T09:15:12.776Z,32.08
2018-08-22T09:17:42.137Z,31.61
2018-08-22T09:20:11.475Z,31.82
2018-08-22T09:22:40.813Z,31.49
2018-08-22T09:25:10.139Z,30.46
2018-08-22T09:27:39.763Z,30.69
2018-08-22T09:30:09.057Z,30.81
2018-08-22T09:32:38.409Z,30.83
2018-08-22T09:35:07.816Z,30.33
2018-08-22T09:37:37.158Z,31.77
2018-08-22T09:40:06.584Z,32.04
2018-08-22T09:42:35.878Z,32.42
2018-08-22T09:45:05.195Z,30.26
2018-08-22T09:47:34.483Z,30.14
2018-08-22T09:50:03.978Z,30.64
2018-08-22T09:52:33.286Z,30.25
2018-08-22T09:55:06.352Z,30.35
2018-08-22T09:57:35.698Z,30.38
2018-08-22T10:00:05.918Z,29.37
2018-08-22T10:02:35.172Z,27.87
2018-08-22T10:05:04.568Z,28.93
2018-08-22T10:07:33.918Z,27.54
2018-08-22T10:10:03.933Z,28.03
2018-08-22T10:12:33.234Z,27.71
2018-08-22T10:15:02.583Z,26.17
2018-08-22T10:17:31.928Z,26.16
2018-08-22T10:20:01.278Z,27.24
2018-08-22T10:22:30.935Z,27.00
2018-08-22T10:25:00.324Z,27.62
2018-08-22T10:27:29.697Z,27.39
2018-08-22T10:29:59.026Z,27.18
2018-08-22T10:32:28.576Z,27.39
2018-08-22T10:34:57.884Z,26.62
2018-08-22T10:37:27.214Z,26.32
2018-08-22T10:39:56.530Z,27.29
2018-08-22T10:42:25.814Z,26.65
2018-08-22T10:44:55.085Z,25.36
2018-08-22T10:47:24.442Z,25.21
2018-08-22T10:49:54.073Z,25.35
2018-08-22T10:52:23.374Z,25.79
2018-08-22T10:54:53.134Z,26.89
2018-08-22T10:57:22.740Z,27.03
2018-08-22T10:59:52.588Z,27.83
2018-08-22T11:02:22.037Z,26.87
2018-08-22T11:04:51.365Z,26.32
2018-08-22T11:07:20.687Z,25.50
2018-08-22T11:09:50.068Z,26.18
2018-08-22T11:12:19.394Z,24.80
2018-08-22T11:14:48.665Z,24.68
2018-08-22T11:17:18.511Z,26.37
2018-08-22T11:19:47.783Z,25.66
2018-08-22T11:22:33.986Z,25.52
2018-08-22T11:25:20.387Z,25.77
2018-08-22T11:28:06.615Z,25.16
2018-08-22T11:30:53.041Z,26.57
2018-08-22T11:33:39.710Z,25.04
2018-08-22T11:36:07.599Z,23.73
2018-08-22T11:38:36.918Z,22.78
2018-08-22T11:41:06.336Z,23.84
2018-08-22T11:43:35.627Z,23.27
2018-08-22T11:46:05.003Z,22.28
2018-08-22T11:48:34.323Z,22.83
2018-08-22T11:51:03.664Z,23.62
2018-08-22T11:53:32.933Z,22.93
2018-08-22T11:56:02.996Z,23.34
2018-08-22T11:58:32.273Z,22.56
2018-08-22T12:01:01.654Z,23.77
2018-08-22T12:03:31.000Z,23.47
2018-08-22T12:06:00.354Z,23.83
2018-08-22T12:08:29.752Z,24.15
2018-08-22T12:10:59.127Z,23.32
2018-08-22T12:13:28.419Z,23.26
2018-08-22T12:15:57.749Z,22.40
2018-08-22T12:18:28.193Z,23.57
2018-08-22T12:20:57.548Z,23.53
2018-08-22T12:23:26.888Z,22.33
2018-08-22T12:25:56.249Z,22.19
2018-08-22T12:28:25.570Z,21.54
2018-08-22T12:30:54.852Z,22.61
2018-08-22T12:33:24.415Z,22.68
2018-08-22T12:35:53.779Z,22.81
2018-08-22T12:38:23.174Z,22.14
2018-08-22T12:40:52.851Z,21.87
2018-08-22T12:43:22.225Z,22.57
2018-08-22T12:45:51.994Z,22.56
2018-08-22T12:48:21.456Z,23.05
2018-08-22T12:50:51.830Z,22.72
2018-08-22T12:53:21.145Z,22.80
2018-08-22T12:55:50.945Z,21.70
2018-08-22T12:58:20.246Z,22.91
2018-08-22T13:00:49.971Z,21.77
2018-08-22T13:03:19.680Z,21.42
2018-08-22T13:05:49.081Z,22.75
2018-08-22T13:08:18.408Z,21.25
2018-08-22T13:10:47.846Z,21.73
2018-08-22T13:13:17.161Z,23.67
2018-08-22T13:15:46.520Z,23.15
2018-08-22T13:18:15.983Z,23.07
2018-08-22T13:20:45.304Z,23.83
2018-08-22T13:23:14.676Z,23.81
2018-08-22T13:25:44.281Z,22.73
2018-08-22T13:28:13.612Z,22.94
2018-08-22T13:30:42.989Z,22.70
2018-08-22T13:33:12.381Z,21.77
2018-08-22T13:35:41.676Z,22.57
2018-08-22T13:38:11.018Z,21.57
2018-08-22T13:40:40.380Z,20.55
2018-08-22T13:43:09.751Z,21.49
2018-08-22T13:45:39.091Z,22.06
2018-08-22T13:48:09.094Z,21.85
2018-08-22T13:50:38.505Z,22.27
2018-08-22T13:53:07.864Z,22.08
2018-08-22T13:55:37.210Z,22.99
2018-08-22T13:58:06.574Z,22.43
2018-08-22T14:00:35.983Z,23.30
2018-08-22T14:03:05.380Z,22.95
2018-08-22T14:05:34.728Z,22.30
2018-08-22T14:08:04.154Z,23.44
2018-08-22T14:10:33.630Z,23.44
2018-08-22T14:13:03.021Z,22.51
2018-08-22T14:15:32.543Z,23.72
2018-08-22T14:18:01.894Z,22.64
2018-08-22T14:20:31.545Z,22.30
2018-08-22T14:23:00.857Z,23.71
2018-08-22T14:25:30.179Z,23.75
2018-08-22T14:27:59.500Z,23.12
2018-08-22T14:30:28.826Z,23.00
2018-08-22T14:32:58.265Z,23.77
2018-08-22T14:35:27.562Z,23.29
2018-08-22T14:37:56.895Z,23.42
2018-08-22T14:40:26.250Z,23.19
2018-08-22T14:42:55.548Z,23.12
2018-08-22T14:45:24.872Z,23.22
2018-08-22T14:47:54.204Z,24.21
2018-08-22T14:50:23.499Z,24.40
2018-08-22T14:52:52.875Z,23.79
2018-08-22T14:55:22.274Z,23.31
2018-08-22T14:57:51.599Z,22.55
2018-08-22T15:00:20.885Z,23.22
2018-08-22T15:02:50.562Z,23.03
2018-08-22T15:05:19.673Z,23.67
2018-08-22T15:07:49.221Z,25.08
2018-08-22T15:10:19.204Z,24.68
2018-08-22T15:12:49.356Z,25.04
2018-08-22T15:15:18.620Z,24.89
2018-08-22T15:17:48.219Z,25.28
2018-08-22T15:20:17.576Z,23.86
2018-08-22T15:22:46.951Z,23.63
2018-08-22T15:25:16.632Z,24.31
2018-08-22T15:27:45.996Z,25.06
2018-08-22T15:30:15.337Z,24.80
2018-08-22T15:32:44.740Z,24.25
2018-08-22T15:35:14.090Z,25.61
2018-08-22T15:37:43.488Z,24.87
2018-08-22T15:40:13.052Z,24.27
2018-08-22T15:42:42.351Z,24.42
2018-08-22T15:45:12.573Z,25.29
2018-08-22T15:47:41.934Z,25.12
2018-08-22T15:50:11.220Z,26.37
2018-08-22T15:52:40.550Z,26.47
2018-08-22T15:55:13.417Z,24.94
2018-08-22T15:58:05.485Z,24.91
2018-08-22T16:00:45.746Z,25.54
2018-08-22T16:03:15.038Z,26.04
2018-08-22T16:05:45.239Z,25.79
2018-08-22T16:08:19.894Z,25.10
2018-08-22T16:10:52.721Z,25.50
2018-08-22T16:13:29.243Z,25.77
2018-08-22T16:16:05.042Z,26.40
2018-08-22T16:18:35.406Z,26.46
2018-08-22T16:21:07.237Z,25.43
2018-08-22T16:23:36.543Z,25.75
2018-08-22T16:26:06.277Z,26.08
2018-08-22T16:28:51.888Z,26.54
2018-08-22T16:31:22.182Z,26.65
2018-08-22T16:33:51.555Z,25.89
2018-08-22T16:36:25.871Z,25.41
2018-08-22T16:38:55.456Z,25.71
2018-08-22T16:41:24.774Z,25.81
2018-08-22T16:43:54.079Z,26.34
2018-08-22T16:46:23.394Z,26.28
2018-08-22T16:48:54.243Z,25.76
2018-08-22T16:51:24.111Z,26.91
2018-08-22T16:54:01.771Z,26.60
2018-08-22T16:56:32.946Z,26.38
2018-08-22T16:59:08.520Z,26.79
2018-08-22T17:01:39.981Z,27.38
2018-08-22T17:04:09.303Z,26.87
2018-08-22T17:06:38.597Z,27.81
2018-08-22T17:09:10.118Z,27.16
2018-08-22T17:11:39.559Z,27.63
2018-08-22T17:14:08.940Z,27.46
2018-08-22T17:16:38.635Z,26.66
2018-08-22T17:19:07.952Z,27.43
2018-08-22T17:21:37.331Z,26.54
2018-08-22T17:24:06.990Z,27.21
2018-08-22T17:26:36.371Z,27.08
2018-08-22T17:29:05.687Z,27.92
2018-08-22T17:31:35.103Z,26.79
2018-08-22T17:34:04.709Z,27.42
2018-08-22T17:36:34.011Z,27.35
2018-08-22T17:39:03.680Z,28.02
2018-08-22T17:41:32.981Z,27.81
2018-08-22T17:44:19.635Z,28.94
2018-08-22T17:46:50.757Z,28.86
2018-08-22T17:49:20.062Z,27.80
2018-08-22T17:51:59.108Z,28.97
2018-08-22T17:54:28.839Z,28.62
2018-08-22T17:57:16.643Z,28.34
2018-08-22T17:59:45.977Z,28.93
2018-08-22T18:02:15.359Z,29.08
2018-08-22T18:05:01.216Z,29.84
2018-08-22T18:07:30.847Z,30.09
2018-08-22T18:10:00.173Z,30.12
2018-08-22T18:12:29.678Z,29.48
2018-08-22T18:15:01.817Z,31.04
2018-08-22T18:17:31.181Z,29.65
2018-08-22T18:20:00.833Z,30.61
2018-08-22T18:22:34.780Z,29.65
2018-08-22T18:25:04.135Z,30.34
2018-08-22T18:27:33.548Z,30.29
2018-08-22T18:30:03.169Z,30.97
2018-08-22T18:32:32.519Z,31.15
2018-08-22T18:35:06.267Z,31.73
2018-08-22T18:37:35.521Z,31.59
2018-08-22T18:40:21.272Z,32.00
2018-08-22T18:42:54.385Z,31.81
2018-08-22T18:45:24.612Z,31.88
2018-08-22T18:47:54.183Z,31.82
2018-08-22T18:50:23.509Z,31.75
2018-08-22T18:52:56.276Z,32.55
2018-08-22T18:55:34.995Z,32.82
2018-08-22T18:58:05.669Z,32.65
2018-08-22T19:00:38.763Z,33.17
2018-08-22T19:03:08.490Z,33.29
2018-08-22T19:05:38.761Z,33.50
2018-08-22T19:08:11.272Z,33.36
2018-08-22T19:10:42.103Z,34.21
2018-08-22T19:13:17.016Z,33.75
2018-08-22T19:15:50.169Z,33.34
2018-08-22T19:18:19.831Z,34.59
2018-08-22T19:20:49.833Z,34.07
2018-08-22T19:23:19.236Z,35.55
2018-08-22T19:25:56.283Z,34.43
2018-08-22T19:28:31.267Z,35.41
2018-08-22T19:31:00.927Z,35.41
2018-08-22T19:33:30.891Z,34.98
2018-08-22T19:36:00.416Z,35.66
2018-08-22T19:38:30.012Z,36.08
2018-08-22T19:41:13.878Z,35.08
2018-08-22T19:43:43.557Z,35.83
2018-08-22T19:46:13.036Z,35.09
2018-08-22T19:48:42.751Z,36.13
2018-08-22T19:51:12.164Z,36.21
2018-08-22T19:53:58.894Z,36.25
2018-08-22T19:56:29.049Z,36.19
2018-08-22T19:58:58.780Z,37.29
2018-08-22T20:01:32.259Z,36.61
2018-08-22T20:04:02.284Z,38.14
2018-08-22T20:06:31.883Z,37.77
2018-08-22T20:09:02.485Z,37.79
2018-08-22T20:11:33.760Z,37.49
2018-08-22T20:14:05.031Z,38.13
2018-08-22T20:16:34.612Z,38.38
2018-08-22T20:19:05.452Z,38.24
2018-08-22T20:21:36.996Z,38.20
2018-08-22T20:24:08.087Z,38.95
2018-08-22T20:26:38.123Z,38.73
2018-08-22T20:29:07.938Z,39.48
2018-08-22T20:31:37.750Z,38.89
2018-08-22T20:34:16.657Z,39.55
2018-08-22T20:36:49.416Z,40.02
2018-08-22T20:39:18.795Z,39.90
2018-08-22T20:41:50.853Z,40.49
2018-08-22T20:44:21.759Z,39.93
2018-08-22T20:46:51.122Z,39.96
2018-08-22T20:49:22.749Z,40.35
2018-08-22T20:51:53.110Z,39.39
2018-08-22T20:54:24.648Z,39.75
2018-08-22T20:56:59.455Z,40.65
2018-08-22T20:59:30.073Z,40.43
2018-08-22T21:02:03.587Z,40.06
2018-08-22T21:04:33.803Z,40.58
2018-08-22T21:07:04.294Z,40.15
2018-08-22T21:09:34.283Z,38.88
2018-08-22T21:12:04.590Z,40.19
2018-08-22T21:14:34.271Z,40.22
2018-08-22T21:17:03.860Z,39.45
2018-08-22T21:19:33.550Z,39.76
2018-08-22T21:22:04.499Z,40.36
2018-08-22T21:24:34.181Z,39.59
2018-08-22T21:27:04.097Z,40.04
2018-08-22T21:29:33.747Z,41.42
2018-08-22T21:32:03.096Z,40.73
2018-08-22T21:34:32.448Z,41.07
2018-08-22T21:37:02.080Z,40.42
2018-08-22T21:39:31.483Z,40.74
2018-08-22T21:42:00.912Z,40.75
2018-08-22T21:44:30.411Z,41.56
2018-08-22T21:47:04.867Z,40.41
2018-08-22T21:49:34.293Z,40.90
2018-08-22T21:52:03.673Z,40.73
2018-08-22T21:54:33.020Z,41.08
2018-08-22T21:57:02.547Z,41.50
2018-08-22T21:59:32.005Z,41.28
2018-08-22T22:02:07.155Z,42.21
2018-08-22T22:04:38.222Z,41.33
2018-08-22T22:07:09.168Z,41.24
2018-08-22T22:09:39.355Z,41.69
2018-08-22T22:12:13.963Z,42.27
2018-08-22T22:14:44.923Z,42.66
2018-08-22T22:17:14.890Z,42.52
2018-08-22T22:19:44.191Z,41.85
2018-08-22T22:22:13.548Z,42.13
2018-08-22T22:24:52.091Z,42.44
2018-08-22T22:27:21.604Z,42.11
2018-08-22T22:29:59.729Z,42.67
2018-08-22T22:32:29.039Z,43.25
2018-08-22T22:34:58.350Z,43.11
2018-08-22T22:37:27.882Z,43.26
2018-08-22T22:39:57.263Z,42.72
2018-08-22T22:42:27.805Z,42.92
2018-08-22T22:44:58.383Z,43.67
2018-08-22T22:47:28.828Z,43.66
2018-08-22T22:49:58.825Z,43.45
2018-08-22T22:52:40.613Z,43.64
2018-08-22T22:55:10.842Z,43.69
2018-08-22T22:57:41.379Z,44.49
2018-08-22T23:00:13.159Z,44.27
2018-08-22T23:02:43.946Z,43.92
2018-08-22T23:05:13.813Z,42.90
2018-08-22T23:07:43.592Z,43.76
2018-08-22T23:10:14.617Z,44.25
2018-08-22T23:12:45.052Z,43.94
2018-08-22T23:15:19.463Z,44.23
2018-08-22T23:17:52.726Z,44.86
2018-08-22T23:20:39.116Z,44.73
2018-08-22T23:23:30.936Z,44.79
2018-08-22T23:26:07.988Z,45.39
2018-08-22T23:28:37.444Z,45.31
2018-08-22T23:31:06.935Z,44.72
2018-08-22T23:33:36.367Z,44.85
2018-08-22T23:36:05.834Z,45.28
2018-08-22T23:38:36.913Z,44.72
2018-08-22T23:41:06.604Z,44.85
2018-08-22T23:43:41.779Z,45.39
2018-08-22T23:46:12.414Z,45.76
2018-08-22T23:48:42.108Z,45.91
2018-08-22T23:51:12.863Z,45.08
2018-08-22T23:53:47.194Z,44.83
2018-08-22T23:56:25.636Z,44.42
2018-08-22T23:58:55.650Z,45.53
